createdAt,value
2018-08-16T00:00:48.519Z,48.28
2018-08-16T00:03:18.104Z,48.23
2018-08-16T00:05:47.692Z,48.33
2018-08-16T00:08:17.213Z,48.96
2018-08-16T00:10:46.892Z,49.18
2018-08-16T00:13:16.511Z,49.54
2018-08-16T00:15:46.052Z,49.03
2018-08-16T00:18:15.595Z,48.52
2018-08-16T00:20:45.225Z,49.40
2018-08-16T00:23:14.872Z,48.49
2018-08-16T00:25:44.397Z,48.24
2018-08-16T00:28:13.960Z,47.68
2018-08-16T00:30:43.491Z,47.56
2018-08-16T00:33:13.013Z,48.07
2018-08-16T00:35:42.608Z,47.91
2018-08-16T00:38:12.188Z,47.39
2018-08-16T00:40:41.768Z,47.53
2018-08-16T00:43:11.423Z,47.68
2018-08-16T00:45:40.960Z,47.56
2018-08-16T00:48:10.494Z,47.62
2018-08-16T00:50:40.027Z,47.62
2018-08-16T00:53:09.620Z,47.65
2018-08-16T00:55:39.173Z,47.65
2018-08-16T00:58:08.695Z,47.57
2018-08-16T01:00:38.291Z,47.96
2018-08-16T01:03:07.844Z,47.92
2018-08-16T01:05:37.411Z,48.04
2018-08-16T01:08:06.931Z,48.73
2018-08-16T01:10:36.608Z,48.80
2018-08-16T01:13:06.296Z,48.45
2018-08-16T01:15:35.927Z,48.84
2018-08-16T01:18:05.568Z,48.41
2018-08-16T01:20:35.212Z,48.35
2018-08-16T01:23:04.892Z,48.78
2018-08-16T01:25:34.588Z,48.87
2018-08-16T01:28:04.239Z,48.21
2018-08-16T01:30:33.794Z,48.64
2018-08-16T01:33:03.291Z,48.39
2018-08-16T01:35:32.808Z,47.63
2018-08-16T01:38:02.316Z,47.54
2018-08-16T01:40:31.924Z,47.48
2018-08-16T01:43:01.480Z,47.54
2018-08-16T01:45:31.035Z,47.40
2018-08-16T01:48:00.552Z,46.86
2018-08-16T01:50:30.172Z,48.00
2018-08-16T01:52:59.751Z,47.20
2018-08-16T01:55:29.337Z,46.86
2018-08-16T01:57:58.879Z,47.09
2018-08-16T02:00:28.443Z,47.10
2018-08-16T02:02:57.967Z,47.33
2018-08-16T02:05:27.599Z,47.99
2018-08-16T02:07:57.146Z,48.01
2018-08-16T02:10:26.769Z,47.72
2018-08-16T02:12:56.274Z,48.56
2018-08-16T02:15:25.851Z,48.11
2018-08-16T02:17:55.447Z,47.85
2018-08-16T02:20:25.099Z,48.46
2018-08-16T02:22:54.626Z,48.58
2018-08-16T02:25:24.128Z,48.50
2018-08-16T02:27:53.683Z,49.00
2018-08-16T02:30:23.233Z,49.38
2018-08-16T02:32:52.838Z,49.88
2018-08-16T02:35:22.456Z,49.06
2018-08-16T02:37:51.979Z,49.42
2018-08-16T02:40:21.619Z,50.00
2018-08-16T02:42:51.188Z,49.69
2018-08-16T02:45:20.738Z,49.12
2018-08-16T02:47:50.364Z,49.30
2018-08-16T02:50:19.914Z,49.46
2018-08-16T02:52:49.545Z,49.75
2018-08-16T02:55:19.080Z,49.60
2018-08-16T02:57:48.647Z,49.35
2018-08-16T03:00:18.136Z,49.29
2018-08-16T03:02:47.682Z,49.82
2018-08-16T03:05:17.178Z,49.62
2018-08-16T03:07:46.703Z,49.50
2018-08-16T03:10:16.224Z,49.85
2018-08-16T03:12:45.922Z,49.74
2018-08-16T03:15:15.428Z,49.63
2018-08-16T03:17:45.031Z,50.34
2018-08-16T03:20:14.585Z,50.18
2018-08-16T03:22:44.210Z,49.92
2018-08-16T03:25:13.719Z,50.30
2018-08-16T03:27:43.312Z,50.08
2018-08-16T03:30:12.825Z,50.08
2018-08-16T03:32:42.379Z,49.74
2018-08-16T03:35:11.956Z,49.91
2018-08-16T03:37:41.448Z,49.30
2018-08-16T03:40:10.971Z,49.74
2018-08-16T03:42:40.932Z,50.00
2018-08-16T03:45:10.584Z,50.28
2018-08-16T03:47:40.227Z,50.49
2018-08-16T03:50:09.892Z,50.76
2018-08-16T03:52:39.451Z,50.60
2018-08-16T03:55:09.109Z,50.64
2018-08-16T03:57:38.655Z,50.75
2018-08-16T04:00:08.664Z,49.92
2018-08-16T04:02:38.294Z,50.46
2018-08-16T04:05:08.287Z,50.05
2018-08-16T04:07:37.856Z,50.37
2018-08-16T04:10:07.431Z,49.97
2018-08-16T04:12:37.027Z,49.89
2018-08-16T04:15:06.609Z,48.88
2018-08-16T04:17:37.044Z,49.95
2018-08-16T04:20:07.390Z,49.35
2018-08-16T04:22:36.923Z,49.43
2018-08-16T04:25:06.527Z,48.74
2018-08-16T04:27:36.039Z,49.28
2018-08-16T04:30:06.451Z,48.80
2018-08-16T04:32:35.991Z,47.45
2018-08-16T04:35:05.943Z,47.24
2018-08-16T04:37:35.561Z,47.52
2018-08-16T04:40:05.481Z,46.99
2018-08-16T04:42:34.987Z,46.54
2018-08-16T04:45:05.800Z,46.58
2018-08-16T04:47:35.375Z,45.77
2018-08-16T04:50:05.660Z,44.96
2018-08-16T04:52:35.210Z,44.89
2018-08-16T04:55:05.540Z,44.88
2018-08-16T04:57:35.399Z,43.59
2018-08-16T05:00:05.398Z,43.66
2018-08-16T05:02:34.954Z,42.50
2018-08-16T05:05:04.847Z,42.62
2018-08-16T05:07:34.384Z,41.84
2018-08-16T05:10:04.140Z,42.56
2018-08-16T05:12:33.754Z,42.27
2018-08-16T05:15:03.452Z,41.76
2018-08-16T05:17:33.142Z,42.04
2018-08-16T05:20:02.676Z,42.08
2018-08-16T05:22:32.270Z,41.74
2018-08-16T05:25:01.855Z,42.08
2018-08-16T05:27:31.387Z,42.06
2018-08-16T05:30:00.996Z,41.03
2018-08-16T05:32:30.542Z,41.15
2018-08-16T05:35:00.214Z,41.36
2018-08-16T05:37:29.752Z,41.09
2018-08-16T05:39:59.384Z,39.34
2018-08-16T05:42:28.927Z,38.94
2018-08-16T05:44:58.568Z,38.60
2018-08-16T05:47:28.280Z,38.29
2018-08-16T05:49:57.907Z,37.82
2018-08-16T05:52:27.456Z,37.36
2018-08-16T05:54:57.161Z,37.52
2018-08-16T05:57:26.774Z,37.70
2018-08-16T05:59:56.413Z,37.46
2018-08-16T06:02:26.207Z,36.41
2018-08-16T06:04:55.766Z,36.62
2018-08-16T06:07:25.368Z,35.97
2018-08-16T06:09:54.988Z,36.23
2018-08-16T06:12:24.630Z,35.65
2018-08-16T06:14:54.147Z,35.30
2018-08-16T06:17:23.691Z,36.13
2018-08-16T06:19:53.308Z,35.46
2018-08-16T06:22:22.904Z,34.84
2018-08-16T06:24:52.504Z,34.05
2018-08-16T06:27:22.107Z,34.32
2018-08-16T06:29:51.780Z,33.26
2018-08-16T06:32:21.423Z,33.37
2018-08-16T06:34:50.964Z,33.39
2018-08-16T06:37:20.603Z,32.80
2018-08-16T06:39:50.346Z,32.31
2018-08-16T06:42:20.043Z,32.42
2018-08-16T06:44:49.608Z,32.05
2018-08-16T06:47:19.202Z,32.20
2018-08-16T06:49:48.800Z,31.87
2018-08-16T06:52:18.432Z,31.96
2018-08-16T06:54:48.014Z,32.26
2018-08-16T06:57:17.573Z,31.96
2018-08-16T06:59:47.431Z,31.65
2018-08-16T07:02:16.987Z,31.34
2018-08-16T07:04:46.713Z,31.02
2018-08-16T07:07:16.505Z,31.88
2018-08-16T07:09:46.227Z,31.81
2018-08-16T07:12:15.977Z,31.40
2018-08-16T07:14:45.592Z,31.12
2018-08-16T07:17:15.248Z,31.16
2018-08-16T07:19:44.835Z,30.95
2018-08-16T07:22:14.348Z,30.26
2018-08-16T07:24:44.027Z,30.39
2018-08-16T07:27:13.702Z,30.64
2018-08-16T07:29:43.287Z,30.07
2018-08-16T07:32:12.876Z,30.29
2018-08-16T07:34:42.452Z,30.83
2018-08-16T07:37:12.103Z,30.07
2018-08-16T07:39:41.620Z,29.83
2018-08-16T07:42:11.248Z,29.83
2018-08-16T07:44:40.831Z,29.79
2018-08-16T07:47:10.419Z,29.66
2018-08-16T07:49:40.073Z,29.48
2018-08-16T07:52:09.740Z,29.79
2018-08-16T07:54:39.370Z,29.64
2018-08-16T07:57:09.019Z,29.70
2018-08-16T07:59:38.676Z,29.31
2018-08-16T08:02:08.256Z,28.94
2018-08-16T08:04:37.810Z,28.45
2018-08-16T08:07:07.494Z,28.14
2018-08-16T08:09:37.308Z,28.31
2018-08-16T08:12:06.943Z,28.31
2018-08-16T08:14:36.519Z,28.08
2018-08-16T08:17:06.199Z,27.74
2018-08-16T08:19:35.872Z,28.06
2018-08-16T08:22:05.457Z,27.63
2018-08-16T08:24:35.148Z,27.37
2018-08-16T08:27:04.844Z,26.51
2018-08-16T08:29:34.405Z,26.56
2018-08-16T08:32:04.105Z,27.01
2018-08-16T08:34:33.671Z,26.88
2018-08-16T08:37:14.045Z,26.88
2018-08-16T08:39:43.872Z,26.40
2018-08-16T08:42:13.487Z,26.59
2018-08-16T08:44:43.065Z,25.81
2018-08-16T08:47:12.671Z,25.86
2018-08-16T08:49:42.307Z,26.58
2018-08-16T08:52:11.879Z,26.02
2018-08-16T08:54:55.456Z,25.79
2018-08-16T08:57:36.487Z,25.01
2018-08-16T09:00:07.636Z,25.47
2018-08-16T09:02:37.299Z,25.16
2018-08-16T09:05:07.415Z,24.59
2018-08-16T09:07:37.050Z,24.83
2018-08-16T09:11:18.082Z,24.58
2018-08-16T09:14:05.876Z,24.15
2018-08-16T09:16:38.547Z,23.91
2018-08-16T09:19:09.000Z,23.73
2018-08-16T09:21:38.909Z,23.62
2018-08-16T09:24:08.634Z,23.38
2018-08-16T09:26:39.253Z,23.34
2018-08-16T09:29:19.414Z,23.09
2018-08-16T09:31:59.980Z,22.20
2018-08-16T09:34:29.651Z,22.62
2018-08-16T09:36:59.223Z,23.08
2018-08-16T09:39:28.882Z,23.17
2018-08-16T09:41:58.558Z,23.21
2018-08-16T09:44:28.077Z,22.69
2018-08-16T09:47:12.236Z,22.47
2018-08-16T09:49:47.731Z,21.82
2018-08-16T09:52:17.688Z,22.80
2018-08-16T09:54:47.475Z,22.43
2018-08-16T09:57:17.592Z,22.60
2018-08-16T09:59:47.472Z,22.58
2018-08-16T10:02:18.513Z,22.63
2018-08-16T10:04:47.921Z,21.82
2018-08-16T10:07:17.519Z,22.72
2018-08-16T10:09:47.112Z,21.81
2018-08-16T10:12:16.676Z,22.16
2018-08-16T10:14:46.223Z,21.40
2018-08-16T10:17:15.794Z,21.62
2018-08-16T10:19:45.395Z,22.34
2018-08-16T10:22:15.039Z,22.20
2018-08-16T10:24:44.604Z,21.63
2018-08-16T10:27:14.220Z,21.52
2018-08-16T10:29:43.929Z,20.74
2018-08-16T10:32:13.479Z,21.37
2018-08-16T10:34:43.024Z,21.35
2018-08-16T10:37:12.644Z,20.85
2018-08-16T10:39:42.177Z,20.88
2018-08-16T10:42:11.747Z,20.33
2018-08-16T10:44:42.097Z,20.93
2018-08-16T10:47:11.724Z,20.34
2018-08-16T10:49:41.250Z,20.80
2018-08-16T10:52:10.806Z,20.07
2018-08-16T10:54:40.466Z,20.89
2018-08-16T10:57:10.116Z,20.48
2018-08-16T10:59:39.757Z,20.88
2018-08-16T11:02:09.407Z,21.62
2018-08-16T11:04:39.016Z,21.93
2018-08-16T11:07:08.669Z,21.11
2018-08-16T11:09:38.159Z,21.65
2018-08-16T11:12:07.808Z,21.45
2018-08-16T11:14:37.396Z,21.35
2018-08-16T11:17:07.248Z,22.18
2018-08-16T11:19:36.920Z,20.56
2018-08-16T11:22:06.935Z,20.86
2018-08-16T11:24:36.494Z,21.12
2018-08-16T11:27:06.305Z,20.54
2018-08-16T11:29:35.883Z,22.06
2018-08-16T11:32:05.564Z,21.41
2018-08-16T11:34:35.091Z,21.17
2018-08-16T11:37:04.650Z,21.54
2018-08-16T11:39:34.151Z,20.75
2018-08-16T11:42:03.904Z,21.47
2018-08-16T11:44:33.524Z,21.09
2018-08-16T11:47:03.059Z,21.90
2018-08-16T11:49:32.720Z,20.53
2018-08-16T11:52:02.276Z,20.29
2018-08-16T11:54:31.912Z,20.06
2018-08-16T11:57:01.524Z,21.35
2018-08-16T11:59:31.364Z,21.66
2018-08-16T12:02:00.950Z,21.60
2018-08-16T12:04:30.620Z,21.24
2018-08-16T12:07:00.163Z,21.39
2018-08-16T12:09:29.690Z,20.69
2018-08-16T12:11:59.276Z,21.19
2018-08-16T12:14:28.802Z,20.43
2018-08-16T12:16:58.377Z,20.75
2018-08-16T12:19:27.948Z,20.36
2018-08-16T12:21:57.899Z,20.88
2018-08-16T12:24:27.545Z,21.21
2018-08-16T12:26:57.115Z,20.64
2018-08-16T12:29:26.775Z,20.75
2018-08-16T12:31:56.428Z,20.58
2018-08-16T12:34:26.096Z,20.36
2018-08-16T12:36:55.762Z,20.82
2018-08-16T12:39:25.324Z,21.37
2018-08-16T12:41:54.971Z,21.04
2018-08-16T12:44:24.621Z,20.92
2018-08-16T12:46:54.120Z,20.83
2018-08-16T12:49:23.738Z,21.44
2018-08-16T12:51:53.308Z,22.08
2018-08-16T12:54:22.896Z,22.14
2018-08-16T12:56:52.441Z,21.20
2018-08-16T12:59:22.056Z,22.08
2018-08-16T13:01:51.649Z,21.12
2018-08-16T13:04:21.183Z,21.38
2018-08-16T13:06:50.783Z,21.95
2018-08-16T13:09:20.372Z,21.55
2018-08-16T13:11:49.921Z,21.37
2018-08-16T13:14:19.589Z,21.19
2018-08-16T13:16:49.180Z,21.38
2018-08-16T13:19:18.881Z,20.70
2018-08-16T13:21:48.476Z,20.52
2018-08-16T13:24:18.019Z,20.94
2018-08-16T13:26:47.571Z,19.76
2018-08-16T13:29:17.099Z,20.01
2018-08-16T13:31:46.660Z,19.91
2018-08-16T13:34:16.304Z,19.68
2018-08-16T13:36:45.888Z,19.27
2018-08-16T13:39:15.471Z,19.88
2018-08-16T13:41:45.074Z,20.49
2018-08-16T13:44:14.581Z,19.80
2018-08-16T13:46:44.195Z,20.55
2018-08-16T13:49:13.772Z,20.07
2018-08-16T13:51:43.331Z,20.69
2018-08-16T13:54:12.882Z,20.35
2018-08-16T13:56:42.453Z,21.25
2018-08-16T13:59:12.895Z,20.97
2018-08-16T14:01:42.547Z,21.69
2018-08-16T14:04:12.048Z,21.88
2018-08-16T14:06:41.705Z,21.93
2018-08-16T14:09:12.147Z,21.38
2018-08-16T14:11:41.736Z,21.52
2018-08-16T14:14:11.312Z,21.36
2018-08-16T14:16:40.816Z,21.84
2018-08-16T14:19:10.399Z,20.90
2018-08-16T14:21:40.210Z,21.14
2018-08-16T14:24:09.848Z,21.08
2018-08-16T14:26:39.400Z,20.79
2018-08-16T14:29:08.968Z,21.08
2018-08-16T14:31:40.136Z,20.68
2018-08-16T14:34:09.716Z,21.61
2018-08-16T14:36:39.371Z,20.86
2018-08-16T14:39:10.688Z,21.62
2018-08-16T14:41:40.339Z,21.29
2018-08-16T14:44:09.933Z,21.56
2018-08-16T14:46:39.540Z,21.69
2018-08-16T14:49:09.064Z,22.15
2018-08-16T14:51:38.668Z,21.88
2018-08-16T14:54:08.744Z,22.41
2018-08-16T14:56:38.360Z,21.99
2018-08-16T14:59:07.906Z,22.68
2018-08-16T15:01:37.532Z,22.87
2018-08-16T15:04:07.075Z,22.88
2018-08-16T15:06:36.623Z,22.67
2018-08-16T15:09:10.153Z,22.69
2018-08-16T15:11:39.896Z,22.62
2018-08-16T15:14:09.475Z,23.06
2018-08-16T15:16:39.080Z,24.29
2018-08-16T15:19:08.785Z,25.16
2018-08-16T15:21:38.332Z,26.47
2018-08-16T15:24:07.867Z,26.95
2018-08-16T15:26:37.451Z,27.22
2018-08-16T15:29:07.176Z,26.78
2018-08-16T15:31:36.738Z,27.22
2018-08-16T15:34:06.327Z,26.89
2018-08-16T15:36:35.934Z,27.11
2018-08-16T15:39:07.522Z,27.61
2018-08-16T15:41:37.230Z,27.01
2018-08-16T15:44:07.003Z,27.41
2018-08-16T15:46:36.552Z,26.87
2018-08-16T15:49:06.139Z,26.76
2018-08-16T15:51:35.695Z,27.26
2018-08-16T15:54:05.269Z,27.08
2018-08-16T15:56:34.855Z,27.82
2018-08-16T15:59:04.520Z,27.26
2018-08-16T16:01:34.096Z,26.39
2018-08-16T16:04:03.616Z,26.98
2018-08-16T16:06:33.231Z,26.93
2018-08-16T16:09:02.874Z,26.66
2018-08-16T16:11:32.450Z,26.95
2018-08-16T16:14:02.057Z,27.21
2018-08-16T16:16:31.571Z,26.75
2018-08-16T16:19:01.107Z,27.27
2018-08-16T16:21:30.737Z,26.60
2018-08-16T16:24:00.380Z,26.85
2018-08-16T16:26:29.996Z,27.22
2018-08-16T16:28:59.567Z,27.28
2018-08-16T16:31:29.127Z,27.55
2018-08-16T16:33:58.728Z,27.16
2018-08-16T16:36:28.271Z,27.31
2018-08-16T16:38:57.896Z,27.56
2018-08-16T16:41:27.407Z,27.51
2018-08-16T16:43:57.100Z,27.22
2018-08-16T16:46:26.603Z,27.40
2018-08-16T16:48:56.222Z,27.69
2018-08-16T16:51:25.765Z,28.12
2018-08-16T16:53:55.379Z,28.34
2018-08-16T16:56:24.948Z,28.47
2018-08-16T16:58:54.569Z,28.72
2018-08-16T17:01:24.183Z,28.87
2018-08-16T17:03:53.767Z,29.22
2018-08-16T17:06:23.383Z,29.17
2018-08-16T17:08:52.992Z,29.32
2018-08-16T17:11:22.602Z,29.41
2018-08-16T17:13:52.160Z,29.72
2018-08-16T17:16:21.729Z,29.89
2018-08-16T17:18:51.309Z,30.46
2018-08-16T17:21:20.899Z,30.74
2018-08-16T17:23:50.472Z,31.44
2018-08-16T17:26:20.064Z,31.34
2018-08-16T17:28:49.609Z,31.84
2018-08-16T17:31:19.110Z,31.74
2018-08-16T17:33:48.712Z,31.85
2018-08-16T17:36:18.268Z,32.12
2018-08-16T17:38:47.836Z,32.45
2018-08-16T17:41:17.379Z,32.64
2018-08-16T17:43:46.959Z,32.64
2018-08-16T17:46:16.535Z,32.82
2018-08-16T17:48:46.187Z,33.01
2018-08-16T17:51:15.735Z,33.21
2018-08-16T17:53:45.271Z,33.15
2018-08-16T17:56:14.786Z,33.22
2018-08-16T17:58:44.444Z,33.99
2018-08-16T18:01:14.043Z,34.38
2018-08-16T18:03:44.094Z,33.93
2018-08-16T18:06:13.755Z,34.75
2018-08-16T18:08:43.698Z,34.19
2018-08-16T18:11:13.674Z,34.37
2018-08-16T18:13:43.231Z,34.34
2018-08-16T18:16:12.796Z,34.85
2018-08-16T18:18:42.367Z,33.84
2018-08-16T18:21:12.004Z,34.37
2018-08-16T18:23:41.543Z,34.25
2018-08-16T18:26:11.116Z,33.52
2018-08-16T18:28:40.736Z,33.71
2018-08-16T18:31:10.327Z,34.45
2018-08-16T18:33:39.900Z,34.65
2018-08-16T18:36:09.542Z,34.87
2018-08-16T18:38:39.261Z,35.12
2018-08-16T18:41:08.892Z,35.36
2018-08-16T18:43:38.412Z,35.97
2018-08-16T18:46:08.148Z,36.85
2018-08-16T18:48:37.708Z,37.84
2018-08-16T18:51:07.294Z,39.04
2018-08-16T18:53:36.960Z,39.29
2018-08-16T18:56:06.419Z,39.68
2018-08-16T18:58:35.943Z,40.00
2018-08-16T19:01:05.567Z,40.41
2018-08-16T19:03:35.118Z,40.96
2018-08-16T19:06:05.009Z,42.14
2018-08-16T19:08:34.572Z,42.00
2018-08-16T19:11:04.230Z,42.44
2018-08-16T19:13:33.770Z,42.22
2018-08-16T19:16:03.396Z,42.67
2018-08-16T19:18:33.058Z,43.31
2018-08-16T19:21:02.551Z,43.11
2018-08-16T19:23:32.064Z,43.43
2018-08-16T19:26:01.656Z,42.76
2018-08-16T19:28:31.222Z,43.38
2018-08-16T19:31:01.263Z,42.81
2018-08-16T19:33:31.425Z,42.83
2018-08-16T19:36:01.187Z,42.29
2018-08-16T19:38:30.760Z,43.12
2018-08-16T19:41:00.380Z,42.35
2018-08-16T19:43:29.944Z,42.81
2018-08-16T19:45:59.528Z,43.57
2018-08-16T19:48:29.183Z,43.14
2018-08-16T19:50:58.761Z,43.79
2018-08-16T19:53:28.415Z,44.40
2018-08-16T19:55:58.485Z,44.93
2018-08-16T19:58:27.983Z,44.81
2018-08-16T20:00:57.972Z,45.20
2018-08-16T20:03:27.823Z,45.71
2018-08-16T20:05:57.415Z,46.02
2018-08-16T20:08:26.918Z,46.66
2018-08-16T20:10:56.597Z,47.27
2018-08-16T20:13:26.111Z,47.49
2018-08-16T20:15:55.664Z,47.87
2018-08-16T20:18:25.242Z,50.17
2018-08-16T20:20:54.800Z,52.62
2018-08-16T20:23:24.385Z,50.59
2018-08-16T20:25:53.955Z,50.71
2018-08-16T20:28:23.550Z,51.97
2018-08-16T20:30:53.123Z,53.54
2018-08-16T20:33:22.749Z,52.84
2018-08-16T20:35:52.318Z,52.67
2018-08-16T20:38:21.802Z,53.10
2018-08-16T20:40:51.350Z,53.99
2018-08-16T20:43:20.929Z,54.27
2018-08-16T20:45:50.568Z,56.76
2018-08-16T20:48:20.135Z,56.97
2018-08-16T20:50:49.748Z,56.98
2018-08-16T20:53:19.301Z,55.50
2018-08-16T20:55:48.892Z,57.69
2018-08-16T20:58:18.466Z,57.47
2018-08-16T21:00:48.008Z,58.91
2018-08-16T21:03:17.577Z,58.70
2018-08-16T21:05:47.228Z,61.47
2018-08-16T21:08:16.776Z,62.59
2018-08-16T21:10:46.379Z,63.04
2018-08-16T21:13:15.912Z,65.05
2018-08-16T21:15:45.564Z,64.51
2018-08-16T21:18:15.127Z,65.11
2018-08-16T21:20:44.698Z,65.59
2018-08-16T21:23:14.295Z,65.38
2018-08-16T21:25:43.889Z,65.30
2018-08-16T21:28:13.461Z,67.04
2018-08-16T21:30:42.993Z,66.12
2018-08-16T21:33:12.478Z,68.17
2018-08-16T21:35:42.023Z,68.93
2018-08-16T21:38:11.606Z,66.78
2018-08-16T21:40:41.160Z,68.16
2018-08-16T21:43:10.749Z,67.88
2018-08-16T21:45:40.256Z,68.44
2018-08-16T21:48:09.880Z,67.60
2018-08-16T21:50:39.520Z,68.75
2018-08-16T21:53:09.156Z,68.95
2018-08-16T21:55:38.659Z,68.58
2018-08-16T21:58:08.239Z,68.47
2018-08-16T22:00:52.619Z,69.16
2018-08-16T22:03:23.395Z,68.60
2018-08-16T22:05:56.932Z,68.35
2018-08-16T22:08:35.179Z,69.33
2018-08-16T22:11:04.784Z,69.64
2018-08-16T22:13:34.283Z,68.34
2018-08-16T22:16:04.075Z,69.34
2018-08-16T22:18:33.727Z,68.87
2018-08-16T22:21:03.420Z,68.82
2018-08-16T22:23:33.048Z,68.83
2018-08-16T22:26:02.773Z,68.85
2018-08-16T22:28:32.266Z,68.87
2018-08-16T22:31:02.209Z,68.71
2018-08-16T22:33:31.992Z,69.64
2018-08-16T22:36:01.540Z,68.32
2018-08-16T22:38:31.063Z,68.88
2018-08-16T22:41:00.719Z,70.03
2018-08-16T22:43:30.244Z,70.83
2018-08-16T22:45:59.827Z,69.63
2018-08-16T22:48:29.449Z,69.78
2018-08-16T22:50:59.005Z,69.44
2018-08-16T22:53:28.592Z,68.69
2018-08-16T22:55:58.292Z,68.65
2018-08-16T22:58:27.823Z,68.27
2018-08-16T23:00:57.439Z,67.14
2018-08-16T23:03:26.944Z,68.05
2018-08-16T23:05:56.579Z,68.04
2018-08-16T23:08:26.542Z,66.93
2018-08-16T23:10:56.068Z,67.72
2018-08-16T23:13:25.599Z,67.47
2018-08-16T23:15:55.188Z,67.71
2018-08-16T23:18:24.746Z,67.58
2018-08-16T23:20:54.295Z,67.59
2018-08-16T23:23:23.807Z,66.51
2018-08-16T23:25:53.403Z,67.31
2018-08-16T23:28:22.938Z,66.59
2018-08-16T23:30:52.475Z,66.17
2018-08-16T23:33:22.032Z,66.58
2018-08-16T23:35:51.563Z,66.97
2018-08-16T23:38:21.244Z,66.49
2018-08-16T23:40:50.760Z,67.40
2018-08-16T23:43:20.319Z,68.25
2018-08-16T23:45:49.823Z,69.24
2018-08-16T23:48:28.217Z,70.31
2018-08-16T23:50:58.308Z,70.29
2018-08-16T23:53:28.260Z,70.01
2018-08-16T23:55:57.851Z,70.91
2018-08-16T23:58:27.414Z,71.09
